GAF350 ZZZZ-EDVK

Flight info

Callsign GAF350
Flight time N/A
Altitude 1111
Route VFR
Aircraft EC45/L-SDE3FGHIRWY/S

Departure

Time N/A
Airport ZZZZ

Arrival

Time 2026-04-27 15:33
Airport Kassel Airport (EDVK)
Time Latitude Longitude Altitude Speed Heading
2026-04-27 13:49 54.47562 9.87323 11 ft 0 kts 57°
2026-04-27 13:53 54.47588 9.87355 22 ft 2 kts 56°
2026-04-27 13:53 54.47589 9.87347 72 ft 3 kts 59°
2026-04-27 13:53 54.47578 9.87301 294 ft 2 kts 59°
2026-04-27 13:54 54.47672 9.87650 439 ft 64 kts 66°
2026-04-27 13:54 54.47705 9.88615 483 ft 98 kts 101°
2026-04-27 13:54 54.47265 9.89584 579 ft 110 kts 142°
2026-04-27 13:54 54.46554 9.90134 639 ft 113 kts 155°
2026-04-27 13:55 54.45809 9.90616 663 ft 115 kts 158°
2026-04-27 13:55 54.45040 9.91055 707 ft 118 kts 160°
2026-04-27 13:55 54.44230 9.91397 782 ft 122 kts 167°
2026-04-27 13:55 54.43379 9.91637 826 ft 125 kts 168°
2026-04-27 13:56 54.42518 9.91875 922 ft 127 kts 169°
2026-04-27 13:56 54.41643 9.92124 1013 ft 128 kts 168°
2026-04-27 13:56 54.40761 9.92381 1103 ft 129 kts 168°
2026-04-27 13:56 54.39874 9.92631 1170 ft 130 kts 171°
2026-04-27 13:57 54.38971 9.92802 1140 ft 132 kts 172°
2026-04-27 13:57 54.38054 9.93013 1166 ft 134 kts 170°
2026-04-27 13:57 54.37130 9.93272 1197 ft 135 kts 169°
2026-04-27 13:57 54.36189 9.93232 1179 ft 135 kts 182°
2026-04-27 13:58 54.35260 9.93204 1254 ft 133 kts 177°
2026-04-27 13:58 54.34328 9.93259 1266 ft 135 kts 175°
2026-04-27 13:58 54.33391 9.93361 1276 ft 136 kts 174°
2026-04-27 13:58 54.32436 9.93519 1334 ft 138 kts 171°
2026-04-27 13:59 54.31536 9.93965 1339 ft 129 kts 152°
2026-04-27 13:59 54.30859 9.94625 1187 ft 98 kts 142°
2026-04-27 13:59 54.30309 9.95046 980 ft 77 kts 164°
2026-04-27 13:59 54.29799 9.95231 814 ft 74 kts 163°
2026-04-27 14:00 54.29267 9.95380 580 ft 103 kts 162°
2026-04-27 14:00 54.28510 9.95073 391 ft 100 kts 238°
2026-04-27 14:00 54.28566 9.94374 327 ft 43 kts
2026-04-27 14:00 54.28714 9.94625 182 ft 22 kts 66°
2026-04-27 14:01 54.28734 9.94728 134 ft 16 kts 68°
2026-04-27 14:01 54.28746 9.94806 74 ft 12 kts 69°
2026-04-27 14:01 54.28750 9.94825 55 ft 10 kts 69°
2026-04-27 14:02 54.28758 9.94853 40 ft 3 kts 70°
2026-04-27 14:02 54.28760 9.94861 29 ft 0 kts 70°
2026-04-27 14:02 54.28760 9.94862 29 ft 0 kts 70°
2026-04-27 14:03 54.28795 9.94953 111 ft 47 kts 54°
2026-04-27 14:04 54.28694 9.95512 352 ft 70 kts 147°
2026-04-27 14:04 54.28172 9.95291 403 ft 92 kts 212°
2026-04-27 14:04 54.27625 9.94589 447 ft 101 kts 213°
2026-04-27 14:04 54.26971 9.94026 583 ft 111 kts 198°
2026-04-27 14:05 54.26197 9.93701 679 ft 118 kts 185°
2026-04-27 14:05 54.25357 9.93592 651 ft 123 kts 177°
2026-04-27 14:05 54.24499 9.93648 694 ft 127 kts 173°
2026-04-27 14:05 54.23611 9.93742 730 ft 128 kts 173°
2026-04-27 14:06 54.22719 9.93843 759 ft 127 kts 173°
2026-04-27 14:06 54.21847 9.93925 891 ft 124 kts 174°
2026-04-27 14:06 54.20989 9.93981 995 ft 123 kts 175°
2026-04-27 14:06 54.20142 9.94010 1109 ft 121 kts 175°
2026-04-27 14:07 54.19305 9.94012 1262 ft 120 kts 179°
2026-04-27 14:07 54.18443 9.93984 1293 ft 127 kts 180°
2026-04-27 14:07 54.17544 9.94003 1275 ft 132 kts 178°
2026-04-27 14:07 54.16614 9.94010 1239 ft 136 kts 178°
2026-04-27 14:08 54.15662 9.93984 1196 ft 139 kts 179°
2026-04-27 14:08 54.14689 9.93928 1095 ft 140 kts 180°
2026-04-27 14:08 54.13705 9.93847 1010 ft 142 kts 181°
2026-04-27 14:08 54.12720 9.93738 918 ft 142 kts 184°
2026-04-27 14:09 54.11758 9.93520 948 ft 138 kts 188°
2026-04-27 14:09 54.10814 9.93232 995 ft 137 kts 190°
2026-04-27 14:09 54.09883 9.92885 997 ft 137 kts 192°
2026-04-27 14:09 54.08956 9.92473 1018 ft 137 kts 195°
2026-04-27 14:10 54.08036 9.92152 1007 ft 137 kts 186°
2026-04-27 14:10 54.07079 9.92088 1026 ft 136 kts 177°
2026-04-27 14:10 54.06140 9.92289 1077 ft 136 kts 166°
2026-04-27 14:10 54.05237 9.92745 1124 ft 135 kts 155°
2026-04-27 14:11 54.04449 9.93531 1148 ft 132 kts 135°
2026-04-27 14:11 54.03929 9.94810 1166 ft 129 kts 108°
2026-04-27 14:11 54.03810 9.96267 1161 ft 125 kts 81°
2026-04-27 14:11 54.03971 9.97714 1148 ft 124 kts 76°
2026-04-27 14:12 54.04094 9.99165 1182 ft 125 kts 81°
2026-04-27 14:12 54.04049 10.00645 1209 ft 129 kts 104°
2026-04-27 14:12 54.03454 10.01800 1221 ft 134 kts 147°
2026-04-27 14:12 54.02561 10.02252 1209 ft 136 kts 172°
2026-04-27 14:13 54.01621 10.02338 1228 ft 135 kts 175°
2026-04-27 14:13 54.00683 10.02437 1251 ft 136 kts 175°
2026-04-27 14:13 53.99727 10.02495 1235 ft 139 kts 178°
2026-04-27 14:13 53.98765 10.02518 1204 ft 138 kts 179°
2026-04-27 14:14 53.97804 10.02526 1191 ft 137 kts 179°
2026-04-27 14:14 53.96850 10.02545 1189 ft 136 kts 177°
2026-04-27 14:14 53.95902 10.02592 1189 ft 137 kts 176°
2026-04-27 14:14 53.94946 10.02664 1169 ft 138 kts 175°
2026-04-27 14:15 53.93982 10.02744 1151 ft 139 kts 175°
2026-04-27 14:15 53.93011 10.02826 1118 ft 140 kts 175°
2026-04-27 14:15 53.92044 10.02909 1070 ft 138 kts 175°
2026-04-27 14:15 53.91087 10.02995 1109 ft 138 kts 175°
2026-04-27 14:16 53.90133 10.03078 1148 ft 137 kts 175°
2026-04-27 14:16 53.89185 10.03158 1187 ft 136 kts 175°
2026-04-27 14:16 53.88240 10.03235 1244 ft 136 kts 176°
2026-04-27 14:16 53.87443 10.03315 1278 ft 136 kts 175°
2026-04-27 14:17 53.86497 10.03439 1287 ft 137 kts 174°
2026-04-27 14:17 53.85544 10.03595 1284 ft 138 kts 172°
2026-04-27 14:17 53.84585 10.03779 1284 ft 139 kts 171°
2026-04-27 14:17 53.83614 10.03876 1269 ft 140 kts 177°
2026-04-27 14:18 53.82643 10.03830 1239 ft 139 kts 183°
2026-04-27 14:18 53.81692 10.03607 1223 ft 137 kts 191°
2026-04-27 14:18 53.80763 10.03270 1236 ft 136 kts 192°
2026-04-27 14:18 53.79837 10.02930 1193 ft 136 kts 193°
2026-04-27 14:19 53.78913 10.02595 1196 ft 136 kts 192°
2026-04-27 14:19 53.77987 10.02298 1200 ft 135 kts 189°
2026-04-27 14:19 53.77060 10.02030 1221 ft 136 kts 188°
2026-04-27 14:19 53.76125 10.01796 1252 ft 136 kts 186°
2026-04-27 14:20 53.75184 10.01612 1215 ft 137 kts 186°
2026-04-27 14:20 53.74234 10.01442 1204 ft 136 kts 185°
2026-04-27 14:20 53.73299 10.01304 1219 ft 136 kts 184°
2026-04-27 14:20 53.72346 10.01184 1201 ft 135 kts 182°
2026-04-27 14:21 53.71419 10.01083 1205 ft 135 kts 183°
2026-04-27 14:21 53.70469 10.00998 1198 ft 135 kts 181°
2026-04-27 14:21 53.69544 10.00855 1229 ft 135 kts 185°
2026-04-27 14:21 53.68610 10.00657 1244 ft 136 kts 187°
2026-04-27 14:22 53.67675 10.00424 1235 ft 136 kts 187°
2026-04-27 14:22 53.66733 10.00177 1210 ft 136 kts 187°
2026-04-27 14:22 53.65798 9.99928 1154 ft 136 kts 188°
2026-04-27 14:22 53.64859 9.99671 1168 ft 136 kts 189°
2026-04-27 14:23 53.63931 9.99407 1149 ft 135 kts 188°
2026-04-27 14:23 53.63010 9.99149 1194 ft 134 kts 188°
2026-04-27 14:23 53.62085 9.98972 1277 ft 134 kts 184°
2026-04-27 14:23 53.61153 9.99053 1290 ft 135 kts 172°
2026-04-27 14:24 53.60216 9.99285 1309 ft 136 kts 168°
2026-04-27 14:24 53.59288 9.99599 1377 ft 137 kts 165°
2026-04-27 14:24 53.58349 9.99911 1401 ft 137 kts 169°
2026-04-27 14:24 53.57398 10.00109 1418 ft 138 kts 174°
2026-04-27 14:25 53.56437 10.00214 1462 ft 139 kts 177°
2026-04-27 14:25 53.55465 10.00233 1498 ft 141 kts 181°
2026-04-27 14:25 53.54476 10.00167 1490 ft 143 kts 182°
2026-04-27 14:25 53.53816 10.00088 1455 ft 144 kts 184°
2026-04-27 14:26 53.52810 9.99959 1482 ft 146 kts 183°
2026-04-27 14:26 53.51786 9.99865 1552 ft 147 kts 182°
2026-04-27 14:26 53.50764 9.99811 1601 ft 148 kts 180°
2026-04-27 14:26 53.49731 9.99793 1666 ft 149 kts 180°
2026-04-27 14:27 53.48681 9.99731 1651 ft 152 kts 181°
2026-04-27 14:27 53.47625 9.99601 1603 ft 152 kts 184°
2026-04-27 14:27 53.46578 9.99448 1565 ft 150 kts 184°
2026-04-27 14:27 53.45542 9.99317 1517 ft 148 kts 182°
2026-04-27 14:28 53.44524 9.99323 1480 ft 145 kts 178°
2026-04-27 14:28 53.43519 9.99349 1421 ft 144 kts 178°
2026-04-27 14:28 53.42520 9.99348 1395 ft 143 kts 181°
2026-04-27 14:28 53.41566 9.98970 1341 ft 139 kts 204°
2026-04-27 14:29 53.40701 9.98316 1417 ft 134 kts 206°
2026-04-27 14:29 53.39880 9.97627 1493 ft 130 kts 208°
2026-04-27 14:29 53.39098 9.96893 1643 ft 128 kts 212°
2026-04-27 14:29 53.38344 9.96108 1772 ft 129 kts 212°
2026-04-27 14:30 53.37552 9.95331 1765 ft 135 kts 210°
2026-04-27 14:30 53.36705 9.94585 1753 ft 140 kts 207°
2026-04-27 14:30 53.35809 9.93890 1710 ft 143 kts 204°
2026-04-27 14:30 53.34879 9.93265 1622 ft 145 kts 201°
2026-04-27 14:31 53.33921 9.92675 1542 ft 147 kts 201°
2026-04-27 14:31 53.32969 9.92082 1458 ft 146 kts 201°
2026-04-27 14:31 53.32027 9.91475 1441 ft 145 kts 202°
2026-04-27 14:31 53.31147 9.90885 1408 ft 144 kts 204°
2026-04-27 14:32 53.30274 9.90279 1416 ft 143 kts 203°
2026-04-27 14:32 53.29600 9.89797 1378 ft 139 kts 208°
2026-04-27 14:32 53.29203 9.89479 1326 ft 132 kts 211°
2026-04-27 14:32 53.28403 9.88743 1257 ft 132 kts 209°
2026-04-27 14:33 53.27594 9.88041 1261 ft 134 kts 209°
2026-04-27 14:33 53.26745 9.87325 1289 ft 136 kts 207°
2026-04-27 14:33 53.25891 9.86628 1330 ft 138 kts 207°
2026-04-27 14:33 53.25017 9.85913 1314 ft 141 kts 206°
2026-04-27 14:34 53.24130 9.85189 1247 ft 143 kts 206°
2026-04-27 14:34 53.23238 9.84458 1199 ft 143 kts 206°
2026-04-27 14:34 53.22352 9.83710 1131 ft 142 kts 208°
2026-04-27 14:34 53.21479 9.82958 1087 ft 141 kts 209°
2026-04-27 14:35 53.20617 9.82217 1074 ft 140 kts 208°
2026-04-27 14:35 53.19745 9.81511 1065 ft 139 kts 205°
2026-04-27 14:35 53.18844 9.80890 1103 ft 138 kts 202°
2026-04-27 14:35 53.17944 9.80360 1118 ft 139 kts 199°
2026-04-27 14:36 53.17017 9.79898 1095 ft 139 kts 195°
2026-04-27 14:36 53.16076 9.79514 1072 ft 139 kts 193°
2026-04-27 14:36 53.15125 9.79186 1061 ft 140 kts 194°
2026-04-27 14:36 53.14201 9.78714 1034 ft 139 kts 201°
2026-04-27 14:37 53.13314 9.78084 1037 ft 138 kts 204°
2026-04-27 14:37 53.12448 9.77425 1060 ft 138 kts 206°
2026-04-27 14:37 53.11580 9.76727 1045 ft 138 kts 208°
2026-04-27 14:37 53.10718 9.76018 1033 ft 138 kts 207°
2026-04-27 14:38 53.09861 9.75310 1018 ft 138 kts 209°
2026-04-27 14:38 53.09003 9.74596 1016 ft 138 kts 209°
2026-04-27 14:38 53.08146 9.73867 1035 ft 137 kts 208°
2026-04-27 14:38 53.07308 9.73118 1112 ft 136 kts 210°
2026-04-27 14:39 53.06502 9.72356 1190 ft 135 kts 213°
2026-04-27 14:39 53.05678 9.71553 1237 ft 135 kts 212°
2026-04-27 14:39 53.04882 9.70763 1273 ft 135 kts 212°
2026-04-27 14:39 53.04081 9.69958 1303 ft 134 kts 213°
2026-04-27 14:40 53.03284 9.69145 1329 ft 134 kts 213°
2026-04-27 14:40 53.02491 9.68324 1389 ft 136 kts 214°
2026-04-27 14:40 53.01676 9.67498 1357 ft 139 kts 213°
2026-04-27 14:40 53.00828 9.66694 1327 ft 141 kts 210°
2026-04-27 14:41 52.99957 9.65934 1326 ft 141 kts 208°
2026-04-27 14:41 52.99069 9.65208 1307 ft 140 kts 206°
2026-04-27 14:41 52.98203 9.64530 1276 ft 139 kts 205°
2026-04-27 14:41 52.97321 9.63869 1260 ft 139 kts 204°
2026-04-27 14:42 52.96448 9.63194 1231 ft 138 kts 206°
2026-04-27 14:42 52.95595 9.62486 1211 ft 137 kts 207°
2026-04-27 14:42 52.94747 9.61795 1183 ft 136 kts 206°
2026-04-27 14:42 52.93898 9.61128 1219 ft 135 kts 206°
2026-04-27 14:43 52.93041 9.60468 1225 ft 135 kts 205°
2026-04-27 14:43 52.92191 9.59805 1230 ft 136 kts 206°
2026-04-27 14:43 52.91326 9.59118 1229 ft 138 kts 207°
2026-04-27 14:43 52.90462 9.58422 1292 ft 138 kts 207°
2026-04-27 14:44 52.89602 9.57718 1316 ft 138 kts 206°
2026-04-27 14:44 52.88742 9.57008 1322 ft 138 kts 208°
2026-04-27 14:44 52.87884 9.56293 1325 ft 137 kts 208°
2026-04-27 14:44 52.87031 9.55576 1367 ft 138 kts 208°
2026-04-27 14:45 52.86173 9.54849 1411 ft 139 kts 207°
2026-04-27 14:45 52.85299 9.54146 1402 ft 140 kts 206°
2026-04-27 14:45 52.84410 9.53488 1449 ft 139 kts 204°
2026-04-27 14:45 52.83525 9.52878 1459 ft 139 kts 202°
2026-04-27 14:46 52.82622 9.52285 1471 ft 138 kts 202°
2026-04-27 14:46 52.81720 9.51717 1458 ft 138 kts 201°
2026-04-27 14:46 52.80816 9.51167 1417 ft 139 kts 200°
2026-04-27 14:46 52.79910 9.50583 1391 ft 140 kts 204°
2026-04-27 14:47 52.79030 9.49931 1372 ft 137 kts 205°
2026-04-27 14:47 52.78164 9.49283 1426 ft 136 kts 205°
2026-04-27 14:47 52.77312 9.48634 1465 ft 134 kts 206°
2026-04-27 14:47 52.76470 9.47980 1581 ft 134 kts 206°
2026-04-27 14:48 52.75629 9.47311 1696 ft 133 kts 206°
2026-04-27 14:48 52.73974 9.45947 1860 ft 133 kts 208°
2026-04-27 14:48 52.73153 9.45246 1917 ft 132 kts 208°
2026-04-27 14:49 52.72341 9.44536 1999 ft 133 kts 209°
2026-04-27 14:49 52.71527 9.43806 2052 ft 134 kts 210°
2026-04-27 14:49 52.70709 9.43058 2093 ft 135 kts 210°
2026-04-27 14:49 52.69881 9.42289 2031 ft 138 kts 210°
2026-04-27 14:50 52.69037 9.41501 1991 ft 141 kts 207°
2026-04-27 14:50 52.68175 9.40681 1914 ft 146 kts 206°
2026-04-27 14:50 52.67283 9.39803 1854 ft 151 kts 205°
2026-04-27 14:50 52.66380 9.38874 1769 ft 157 kts 203°
2026-04-27 14:51 52.65442 9.37901 1663 ft 161 kts 202°
2026-04-27 14:51 52.64490 9.36892 1573 ft 164 kts 202°
2026-04-27 14:51 52.63542 9.35857 1491 ft 162 kts 202°
2026-04-27 14:51 52.62927 9.35175 1467 ft 159 kts 204°
2026-04-27 14:52 52.61718 9.33812 1479 ft 156 kts 205°
2026-04-27 14:52 52.60835 9.32813 1498 ft 152 kts 207°
2026-04-27 14:52 52.59975 9.31873 1560 ft 146 kts 209°
2026-04-27 14:52 52.59137 9.30998 1628 ft 139 kts 211°
2026-04-27 14:53 52.58329 9.30180 1704 ft 133 kts 213°
2026-04-27 14:53 52.57554 9.29409 1759 ft 129 kts 212°
2026-04-27 14:53 52.56793 9.28629 1768 ft 130 kts 215°
2026-04-27 14:53 52.56042 9.27795 1799 ft 130 kts 217°
2026-04-27 14:54 52.55303 9.26929 1809 ft 131 kts 218°
2026-04-27 14:54 52.54566 9.26039 1876 ft 131 kts 218°
2026-04-27 14:54 52.53832 9.25139 1889 ft 134 kts 218°
2026-04-27 14:54 52.53065 9.24214 1863 ft 138 kts 217°
2026-04-27 14:55 52.52275 9.23279 1696 ft 141 kts 216°
2026-04-27 14:55 52.51459 9.22348 1431 ft 144 kts 214°
2026-04-27 14:55 52.50734 9.21286 938 ft 137 kts 246°
2026-04-27 14:55 52.50816 9.20008 679 ft 102 kts 328°
2026-04-27 14:56 52.51073 9.19401 432 ft 69 kts 165°
2026-04-27 14:56 52.50996 9.19964 259 ft 44 kts 78°
2026-04-27 14:56 52.50994 9.20230 167 ft 8 kts 82°
2026-04-27 14:56 52.50996 9.20287 149 ft 1 kts 88°
2026-04-27 14:57 52.50995 9.20294 141 ft 1 kts 89°
2026-04-27 14:57 52.50996 9.20296 139 ft 0 kts 87°
2026-04-27 15:01 52.50996 9.20295 136 ft 0 kts 88°
2026-04-27 15:01 52.50977 9.20739 381 ft 60 kts 93°
2026-04-27 15:02 52.50636 9.21275 573 ft 85 kts 168°
2026-04-27 15:02 52.50020 9.21073 648 ft 96 kts 196°
2026-04-27 15:02 52.49362 9.20731 726 ft 103 kts 198°
2026-04-27 15:02 52.48658 9.20346 792 ft 109 kts 198°
2026-04-27 15:03 52.48127 9.20048 848 ft 112 kts 200°
2026-04-27 15:03 52.47375 9.19623 884 ft 116 kts 199°
2026-04-27 15:03 52.46603 9.19188 941 ft 118 kts 199°
2026-04-27 15:03 52.45819 9.18762 940 ft 120 kts 195°
2026-04-27 15:04 52.44997 9.18470 883 ft 122 kts 187°
2026-04-27 15:04 52.44147 9.18356 850 ft 123 kts 181°
2026-04-27 15:04 52.43294 9.18369 810 ft 121 kts 177°
2026-04-27 15:04 52.42469 9.18422 819 ft 119 kts 176°
2026-04-27 15:05 52.41638 9.18509 860 ft 119 kts 176°
2026-04-27 15:05 52.40794 9.18717 950 ft 126 kts 165°
2026-04-27 15:05 52.40025 9.19136 980 ft 131 kts 154°
2026-04-27 15:05 52.39209 9.19845 988 ft 134 kts 145°
2026-04-27 15:06 52.38474 9.20799 1012 ft 136 kts 134°
2026-04-27 15:06 52.38039 9.21569 1033 ft 137 kts 127°
2026-04-27 15:06 52.37780 9.22133 1040 ft 137 kts 122°
2026-04-27 15:06 52.37134 9.23918 1007 ft 137 kts 116°
2026-04-27 15:07 52.36648 9.25265 963 ft 138 kts 118°
2026-04-27 15:07 52.36314 9.26168 929 ft 137 kts 119°
2026-04-27 15:07 52.35811 9.27470 994 ft 133 kts 121°
2026-04-27 15:07 52.35292 9.28697 1005 ft 130 kts 123°
2026-04-27 15:08 52.34733 9.29834 1047 ft 127 kts 129°
2026-04-27 15:08 52.34125 9.30872 1189 ft 126 kts 134°
2026-04-27 15:08 52.33462 9.31816 1344 ft 126 kts 138°
2026-04-27 15:08 52.32765 9.32678 1427 ft 125 kts 140°
2026-04-27 15:09 52.32048 9.33472 1559 ft 125 kts 144°
2026-04-27 15:09 52.31302 9.34205 1687 ft 126 kts 146°
2026-04-27 15:09 52.30527 9.34875 1789 ft 126 kts 150°
2026-04-27 15:09 52.29731 9.35477 1899 ft 127 kts 153°
2026-04-27 15:10 52.28907 9.36016 2016 ft 126 kts 157°
2026-04-27 15:10 52.28079 9.36483 2098 ft 127 kts 159°
2026-04-27 15:10 52.27221 9.36936 2144 ft 131 kts 160°
2026-04-27 15:10 52.26345 9.37388 2152 ft 133 kts 160°
2026-04-27 15:11 52.25452 9.37840 2180 ft 135 kts 161°
2026-04-27 15:11 52.24544 9.38295 2220 ft 138 kts 160°
2026-04-27 15:11 52.23625 9.38750 2286 ft 138 kts 160°
2026-04-27 15:11 52.22703 9.39204 2324 ft 139 kts 160°
2026-04-27 15:12 52.21775 9.39663 2394 ft 139 kts 161°
2026-04-27 15:12 52.20844 9.40090 2473 ft 139 kts 163°
2026-04-27 15:12 52.19903 9.40446 2540 ft 139 kts 165°
2026-04-27 15:12 52.18959 9.40791 2553 ft 139 kts 165°
2026-04-27 15:13 52.18018 9.41140 2512 ft 139 kts 165°
2026-04-27 15:13 52.17069 9.41491 2459 ft 140 kts 166°
2026-04-27 15:13 52.16119 9.41816 2441 ft 139 kts 166°
2026-04-27 15:13 52.15160 9.42065 2389 ft 139 kts 171°
2026-04-27 15:14 52.14199 9.42209 2323 ft 140 kts 174°
2026-04-27 15:14 52.13281 9.42251 2290 ft 140 kts 178°
2026-04-27 15:14 52.12297 9.42195 2286 ft 141 kts 182°
2026-04-27 15:14 52.11332 9.42035 2302 ft 141 kts 186°
2026-04-27 15:15 52.10354 9.41767 2263 ft 141 kts 189°
2026-04-27 15:15 52.09401 9.41400 2227 ft 141 kts 194°
2026-04-27 15:15 52.08459 9.40943 2240 ft 142 kts 194°
2026-04-27 15:15 52.07515 9.40478 2174 ft 143 kts 195°
2026-04-27 15:16 52.06557 9.40018 2113 ft 144 kts 195°
2026-04-27 15:16 52.05588 9.39568 2043 ft 145 kts 195°
2026-04-27 15:16 52.04594 9.39119 1988 ft 147 kts 194°
2026-04-27 15:16 52.03618 9.38708 1928 ft 147 kts 192°
2026-04-27 15:17 52.02621 9.38331 1957 ft 147 kts 191°
2026-04-27 15:17 52.01608 9.37985 1916 ft 147 kts 191°
2026-04-27 15:17 52.00626 9.37686 1828 ft 146 kts 188°
2026-04-27 15:17 51.99625 9.37423 1776 ft 145 kts 187°
2026-04-27 15:18 51.98634 9.37199 1708 ft 143 kts 186°
2026-04-27 15:18 51.97646 9.37016 1697 ft 143 kts 184°
2026-04-27 15:18 51.96717 9.36874 1675 ft 143 kts 184°
2026-04-27 15:18 51.95847 9.36763 1646 ft 140 kts 185°
2026-04-27 15:19 51.94901 9.36656 1562 ft 138 kts 181°
2026-04-27 15:19 51.94105 9.36593 1515 ft 136 kts 179°
2026-04-27 15:19 51.93406 9.36532 1455 ft 123 kts 184°
2026-04-27 15:19 51.92636 9.36483 1432 ft 125 kts 179°
2026-04-27 15:20 51.91764 9.36449 1524 ft 126 kts 177°
2026-04-27 15:20 51.90886 9.36423 1667 ft 126 kts 177°
2026-04-27 15:20 51.90001 9.36402 1770 ft 128 kts 178°
2026-04-27 15:20 51.89097 9.36393 1930 ft 131 kts 176°
2026-04-27 15:21 51.88182 9.36396 2040 ft 132 kts 176°
2026-04-27 15:21 51.87254 9.36415 2135 ft 134 kts 175°
2026-04-27 15:21 51.86320 9.36451 2199 ft 134 kts 175°
2026-04-27 15:21 51.85386 9.36511 2297 ft 134 kts 174°
2026-04-27 15:22 51.84452 9.36591 2333 ft 134 kts 173°
2026-04-27 15:22 51.83519 9.36683 2362 ft 135 kts 174°
2026-04-27 15:22 51.82581 9.36774 2396 ft 135 kts 173°
2026-04-27 15:22 51.81641 9.36864 2438 ft 136 kts 174°
2026-04-27 15:23 51.80706 9.36954 2496 ft 136 kts 174°
2026-04-27 15:23 51.79763 9.37043 2478 ft 136 kts 175°
2026-04-27 15:23 51.78809 9.37105 2521 ft 138 kts 176°
2026-04-27 15:23 51.77825 9.37095 2546 ft 140 kts 180°
2026-04-27 15:24 51.76857 9.37007 2559 ft 142 kts 182°
2026-04-27 15:24 51.75872 9.36847 2505 ft 142 kts 185°
2026-04-27 15:24 51.74889 9.36638 2442 ft 142 kts 186°
2026-04-27 15:24 51.73905 9.36396 2381 ft 145 kts 187°
2026-04-27 15:25 51.72896 9.36127 2349 ft 145 kts 188°
2026-04-27 15:25 51.71907 9.35847 2363 ft 144 kts 188°
2026-04-27 15:25 51.70932 9.35552 2368 ft 145 kts 189°
2026-04-27 15:25 51.69941 9.35231 2323 ft 145 kts 189°
2026-04-27 15:26 51.68951 9.34889 2245 ft 146 kts 191°
2026-04-27 15:26 51.67939 9.34570 2203 ft 146 kts 188°
2026-04-27 15:26 51.66936 9.34280 2207 ft 146 kts 188°
2026-04-27 15:26 51.65940 9.34003 2173 ft 145 kts 188°
2026-04-27 15:27 51.64959 9.33743 2145 ft 144 kts 187°
2026-04-27 15:27 51.63969 9.33495 2060 ft 144 kts 187°
2026-04-27 15:27 51.62978 9.33256 1993 ft 143 kts 187°
2026-04-27 15:27 51.61994 9.33029 1876 ft 142 kts 187°
2026-04-27 15:28 51.61013 9.32815 1803 ft 142 kts 186°
2026-04-27 15:28 51.60029 9.32609 1737 ft 142 kts 186°
2026-04-27 15:28 51.59053 9.32405 1701 ft 141 kts 186°
2026-04-27 15:28 51.58090 9.32179 1715 ft 139 kts 187°
2026-04-27 15:29 51.57140 9.31938 1752 ft 137 kts 188°
2026-04-27 15:29 51.56192 9.31695 1763 ft 136 kts 187°
2026-04-27 15:29 51.55276 9.31458 1792 ft 135 kts 188°
2026-04-27 15:29 51.54349 9.31216 1876 ft 134 kts 188°
2026-04-27 15:30 51.53428 9.30975 1923 ft 134 kts 188°
2026-04-27 15:30 51.52497 9.30754 1932 ft 136 kts 187°
2026-04-27 15:30 51.51559 9.30544 1913 ft 137 kts 187°
2026-04-27 15:30 51.50612 9.30331 1927 ft 138 kts 187°
2026-04-27 15:31 51.49660 9.30244 1950 ft 137 kts 167°
2026-04-27 15:31 51.48783 9.30826 1891 ft 136 kts 149°
2026-04-27 15:31 51.47965 9.31594 1814 ft 136 kts 146°
2026-04-27 15:31 51.47156 9.32389 1749 ft 137 kts 145°
2026-04-27 15:32 51.46343 9.33189 1694 ft 137 kts 144°
2026-04-27 15:32 51.45530 9.33992 1672 ft 137 kts 144°
2026-04-27 15:32 51.44709 9.34804 1658 ft 136 kts 143°
2026-04-27 15:32 51.43924 9.35605 1548 ft 131 kts 144°
2026-04-27 15:33 51.43193 9.36392 1440 ft 122 kts 143°
2026-04-27 15:33 51.42619 9.37099 1295 ft 85 kts 138°
2026-04-27 15:33 51.42263 9.37623 1154 ft 59 kts 136°
2026-04-27 15:33 51.42063 9.38075 1087 ft 44 kts 111°
2026-04-27 15:34 51.41982 9.38515 1019 ft 38 kts 95°
2026-04-27 15:34 51.41940 9.38875 941 ft 28 kts 92°
2026-04-27 15:34 51.41928 9.39053 905 ft 24 kts 91°
2026-04-27 15:35 51.41915 9.39246 883 ft 14 kts 92°
2026-04-27 15:36 51.41902 9.39355 872 ft 7 kts 158°
2026-04-27 15:36 51.41853 9.39357 871 ft 5 kts 181°
2026-04-27 15:36 51.41832 9.39358 874 ft 1 kts 181°
2026-04-27 15:36 51.41801 9.39463 897 ft 30 kts 94°
2026-04-27 15:37 51.41791 9.39683 870 ft 8 kts 45°
2026-04-27 15:37 51.41812 9.39697 868 ft 2 kts
2026-04-27 15:37 51.41819 9.39698 849 ft 0 kts